sensor_id;sensor_type;location;lat;lon;timestamp;P1;durP1;ratioP1;P2;durP2;ratioP2
55150;SDS011;41041;43.162;20.538;2023-12-28T00:00:22;39.28;;;21.65;;
55150;SDS011;41041;43.162;20.538;2023-12-28T00:02:48;44.88;;;23.45;;
55150;SDS011;41041;43.162;20.538;2023-12-28T00:05:14;44.28;;;24.13;;
55150;SDS011;41041;43.162;20.538;2023-12-28T00:07:40;38.50;;;22.88;;
55150;SDS011;41041;43.162;20.538;2023-12-28T00:10:06;46.55;;;25.23;;
55150;SDS011;41041;43.162;20.538;2023-12-28T00:12:32;43.00;;;23.98;;
55150;SDS011;41041;43.162;20.538;2023-12-28T00:14:59;44.05;;;23.67;;
55150;SDS011;41041;43.162;20.538;2023-12-28T00:17:25;33.92;;;19.65;;
55150;SDS011;41041;43.162;20.538;2023-12-28T00:19:56;30.73;;;18.00;;
55150;SDS011;41041;43.162;20.538;2023-12-28T00:22:22;29.65;;;17.65;;
55150;SDS011;41041;43.162;20.538;2023-12-28T00:24:48;31.67;;;17.88;;
55150;SDS011;41041;43.162;20.538;2023-12-28T00:27:14;30.27;;;18.10;;
55150;SDS011;41041;43.162;20.538;2023-12-28T00:29:40;31.00;;;18.60;;
55150;SDS011;41041;43.162;20.538;2023-12-28T00:32:08;37.00;;;20.55;;
55150;SDS011;41041;43.162;20.538;2023-12-28T00:34:34;38.40;;;22.33;;
55150;SDS011;41041;43.162;20.538;2023-12-28T00:37:01;38.38;;;22.42;;
55150;SDS011;41041;43.162;20.538;2023-12-28T00:39:27;38.60;;;23.60;;
55150;SDS011;41041;43.162;20.538;2023-12-28T00:41:53;36.53;;;20.27;;
55150;SDS011;41041;43.162;20.538;2023-12-28T00:44:20;36.67;;;21.35;;
55150;SDS011;41041;43.162;20.538;2023-12-28T00:46:46;33.55;;;20.27;;
55150;SDS011;41041;43.162;20.538;2023-12-28T00:49:13;34.17;;;19.42;;
55150;SDS011;41041;43.162;20.538;2023-12-28T00:51:39;30.80;;;18.15;;
55150;SDS011;41041;43.162;20.538;2023-12-28T00:54:05;32.90;;;18.92;;
55150;SDS011;41041;43.162;20.538;2023-12-28T00:56:31;32.10;;;18.65;;
55150;SDS011;41041;43.162;20.538;2023-12-28T00:58:57;32.50;;;19.27;;
55150;SDS011;41041;43.162;20.538;2023-12-28T01:01:23;34.08;;;20.52;;
55150;SDS011;41041;43.162;20.538;2023-12-28T01:03:49;34.10;;;19.40;;
55150;SDS011;41041;43.162;20.538;2023-12-28T01:06:15;38.70;;;20.60;;
55150;SDS011;41041;43.162;20.538;2023-12-28T01:08:41;38.72;;;21.98;;
55150;SDS011;41041;43.162;20.538;2023-12-28T01:11:07;43.08;;;25.02;;
55150;SDS011;41041;43.162;20.538;2023-12-28T01:13:34;43.88;;;23.55;;
55150;SDS011;41041;43.162;20.538;2023-12-28T01:16:01;41.40;;;22.85;;
55150;SDS011;41041;43.162;20.538;2023-12-28T01:18:27;46.00;;;25.50;;
55150;SDS011;41041;43.162;20.538;2023-12-28T01:20:53;45.35;;;24.45;;
55150;SDS011;41041;43.162;20.538;2023-12-28T01:23:19;41.40;;;22.67;;
55150;SDS011;41041;43.162;20.538;2023-12-28T01:25:45;43.78;;;24.40;;
55150;SDS011;41041;43.162;20.538;2023-12-28T01:28:11;37.63;;;22.42;;
55150;SDS011;41041;43.162;20.538;2023-12-28T01:30:38;41.40;;;24.15;;
55150;SDS011;41041;43.162;20.538;2023-12-28T01:33:04;37.58;;;20.83;;
55150;SDS011;41041;43.162;20.538;2023-12-28T01:35:30;40.40;;;21.48;;
55150;SDS011;41041;43.162;20.538;2023-12-28T01:37:56;41.67;;;21.95;;
55150;SDS011;41041;43.162;20.538;2023-12-28T01:40:22;39.05;;;22.38;;
55150;SDS011;41041;43.162;20.538;2023-12-28T01:42:48;38.35;;;21.17;;
55150;SDS011;41041;43.162;20.538;2023-12-28T01:45:14;33.67;;;20.17;;
55150;SDS011;41041;43.162;20.538;2023-12-28T01:47:41;40.22;;;20.80;;
55150;SDS011;41041;43.162;20.538;2023-12-28T01:50:07;37.30;;;19.00;;
55150;SDS011;41041;43.162;20.538;2023-12-28T01:52:33;30.90;;;17.73;;
55150;SDS011;41041;43.162;20.538;2023-12-28T01:54:59;31.15;;;16.75;;
55150;SDS011;41041;43.162;20.538;2023-12-28T01:57:26;33.40;;;18.67;;
55150;SDS011;41041;43.162;20.538;2023-12-28T01:59:52;30.90;;;17.52;;
55150;SDS011;41041;43.162;20.538;2023-12-28T02:02:20;35.13;;;19.58;;
55150;SDS011;41041;43.162;20.538;2023-12-28T02:04:46;35.55;;;18.42;;
55150;SDS011;41041;43.162;20.538;2023-12-28T02:07:13;32.10;;;17.13;;
55150;SDS011;41041;43.162;20.538;2023-12-28T02:09:39;31.23;;;17.95;;
55150;SDS011;41041;43.162;20.538;2023-12-28T02:12:05;35.45;;;16.90;;
55150;SDS011;41041;43.162;20.538;2023-12-28T02:14:31;32.88;;;16.63;;
55150;SDS011;41041;43.162;20.538;2023-12-28T02:17:03;33.17;;;18.52;;
55150;SDS011;41041;43.162;20.538;2023-12-28T02:21:56;34.88;;;18.80;;
55150;SDS011;41041;43.162;20.538;2023-12-28T02:27:02;29.48;;;16.67;;
55150;SDS011;41041;43.162;20.538;2023-12-28T02:29:28;35.28;;;16.48;;
55150;SDS011;41041;43.162;20.538;2023-12-28T02:31:58;34.95;;;18.48;;
55150;SDS011;41041;43.162;20.538;2023-12-28T02:34:31;54.33;;;24.10;;
55150;SDS011;41041;43.162;20.538;2023-12-28T02:37:00;60.72;;;24.85;;
55150;SDS011;41041;43.162;20.538;2023-12-28T02:39:27;90.13;;;32.28;;
55150;SDS011;41041;43.162;20.538;2023-12-28T02:41:54;70.30;;;28.10;;
55150;SDS011;41041;43.162;20.538;2023-12-28T02:44:20;51.50;;;24.27;;
55150;SDS011;41041;43.162;20.538;2023-12-28T02:46:47;43.05;;;21.83;;
55150;SDS011;41041;43.162;20.538;2023-12-28T02:49:14;40.00;;;20.50;;
55150;SDS011;41041;43.162;20.538;2023-12-28T02:51:40;38.97;;;19.25;;
55150;SDS011;41041;43.162;20.538;2023-12-28T02:54:09;56.95;;;25.50;;
55150;SDS011;41041;43.162;20.538;2023-12-28T02:56:35;58.22;;;25.55;;
55150;SDS011;41041;43.162;20.538;2023-12-28T02:59:02;33.00;;;16.30;;
55150;SDS011;41041;43.162;20.538;2023-12-28T03:01:28;41.30;;;21.50;;
55150;SDS011;41041;43.162;20.538;2023-12-28T03:03:54;51.15;;;22.55;;
55150;SDS011;41041;43.162;20.538;2023-12-28T03:06:20;31.73;;;16.83;;
55150;SDS011;41041;43.162;20.538;2023-12-28T03:08:46;29.88;;;15.25;;
55150;SDS011;41041;43.162;20.538;2023-12-28T03:11:14;26.02;;;14.35;;
55150;SDS011;41041;43.162;20.538;2023-12-28T03:13:40;28.63;;;15.15;;
55150;SDS011;41041;43.162;20.538;2023-12-28T03:16:06;27.75;;;15.73;;
55150;SDS011;41041;43.162;20.538;2023-12-28T03:18:32;28.05;;;16.05;;
55150;SDS011;41041;43.162;20.538;2023-12-28T03:23:43;29.83;;;15.68;;
55150;SDS011;41041;43.162;20.538;2023-12-28T03:26:09;38.85;;;20.20;;
55150;SDS011;41041;43.162;20.538;2023-12-28T03:28:35;37.88;;;19.85;;
55150;SDS011;41041;43.162;20.538;2023-12-28T03:31:02;36.63;;;20.15;;
55150;SDS011;41041;43.162;20.538;2023-12-28T03:33:28;38.00;;;21.52;;
55150;SDS011;41041;43.162;20.538;2023-12-28T03:35:54;44.85;;;22.98;;
55150;SDS011;41041;43.162;20.538;2023-12-28T03:38:29;37.45;;;18.67;;
55150;SDS011;41041;43.162;20.538;2023-12-28T03:40:55;26.88;;;13.40;;
55150;SDS011;41041;43.162;20.538;2023-12-28T03:43:21;23.95;;;13.45;;
55150;SDS011;41041;43.162;20.538;2023-12-28T03:45:47;24.88;;;12.90;;
55150;SDS011;41041;43.162;20.538;2023-12-28T03:48:13;62.95;;;22.75;;
55150;SDS011;41041;43.162;20.538;2023-12-28T03:50:39;71.35;;;23.08;;
55150;SDS011;41041;43.162;20.538;2023-12-28T03:53:05;49.10;;;18.88;;
55150;SDS011;41041;43.162;20.538;2023-12-28T03:55:31;32.33;;;14.57;;
55150;SDS011;41041;43.162;20.538;2023-12-28T03:57:57;23.42;;;13.77;;
55150;SDS011;41041;43.162;20.538;2023-12-28T04:00:23;28.15;;;14.40;;
55150;SDS011;41041;43.162;20.538;2023-12-28T04:02:50;64.15;;;24.83;;
55150;SDS011;41041;43.162;20.538;2023-12-28T04:05:16;96.63;;;39.45;;
55150;SDS011;41041;43.162;20.538;2023-12-28T04:07:42;100.63;;;40.60;;
55150;SDS011;41041;43.162;20.538;2023-12-28T04:12:53;44.05;;;21.20;;
55150;SDS011;41041;43.162;20.538;2023-12-28T04:15:22;41.70;;;21.30;;
55150;SDS011;41041;43.162;20.538;2023-12-28T04:17:49;42.65;;;21.77;;
55150;SDS011;41041;43.162;20.538;2023-12-28T04:20:15;85.60;;;42.60;;
55150;SDS011;41041;43.162;20.538;2023-12-28T04:22:41;47.70;;;23.02;;
55150;SDS011;41041;43.162;20.538;2023-12-28T04:25:08;47.40;;;20.52;;
55150;SDS011;41041;43.162;20.538;2023-12-28T04:27:34;43.60;;;21.13;;
55150;SDS011;41041;43.162;20.538;2023-12-28T04:30:00;42.97;;;21.88;;
55150;SDS011;41041;43.162;20.538;2023-12-28T04:32:35;41.30;;;19.70;;
55150;SDS011;41041;43.162;20.538;2023-12-28T04:35:01;41.75;;;20.38;;
55150;SDS011;41041;43.162;20.538;2023-12-28T04:37:28;42.90;;;21.70;;
55150;SDS011;41041;43.162;20.538;2023-12-28T04:39:55;49.22;;;23.63;;
55150;SDS011;41041;43.162;20.538;2023-12-28T04:42:22;58.75;;;26.02;;
55150;SDS011;41041;43.162;20.538;2023-12-28T04:44:48;53.38;;;24.05;;
55150;SDS011;41041;43.162;20.538;2023-12-28T04:47:14;60.65;;;24.52;;
55150;SDS011;41041;43.162;20.538;2023-12-28T04:49:40;52.00;;;22.00;;
55150;SDS011;41041;43.162;20.538;2023-12-28T04:52:06;54.17;;;21.10;;
55150;SDS011;41041;43.162;20.538;2023-12-28T04:54:33;57.75;;;20.95;;
55150;SDS011;41041;43.162;20.538;2023-12-28T04:56:59;69.03;;;21.58;;
55150;SDS011;41041;43.162;20.538;2023-12-28T04:59:25;63.67;;;19.67;;
55150;SDS011;41041;43.162;20.538;2023-12-28T05:01:51;60.70;;;19.35;;
55150;SDS011;41041;43.162;20.538;2023-12-28T05:04:17;76.00;;;18.27;;
55150;SDS011;41041;43.162;20.538;2023-12-28T05:06:43;43.35;;;16.25;;
55150;SDS011;41041;43.162;20.538;2023-12-28T05:09:09;61.10;;;19.17;;
55150;SDS011;41041;43.162;20.538;2023-12-28T05:11:46;57.97;;;17.35;;
55150;SDS011;41041;43.162;20.538;2023-12-28T05:14:12;60.05;;;19.88;;
55150;SDS011;41041;43.162;20.538;2023-12-28T05:16:38;44.17;;;17.25;;
55150;SDS011;41041;43.162;20.538;2023-12-28T05:19:05;44.25;;;17.50;;
55150;SDS011;41041;43.162;20.538;2023-12-28T05:21:31;62.95;;;21.70;;
55150;SDS011;41041;43.162;20.538;2023-12-28T05:23:57;45.83;;;20.17;;
55150;SDS011;41041;43.162;20.538;2023-12-28T05:28:52;42.22;;;18.70;;
55150;SDS011;41041;43.162;20.538;2023-12-28T05:31:18;51.13;;;20.50;;
55150;SDS011;41041;43.162;20.538;2023-12-28T05:33:44;64.00;;;24.30;;
55150;SDS011;41041;43.162;20.538;2023-12-28T05:36:10;51.63;;;23.65;;
55150;SDS011;41041;43.162;20.538;2023-12-28T05:38:37;54.70;;;21.33;;
55150;SDS011;41041;43.162;20.538;2023-12-28T05:41:03;72.05;;;24.83;;
55150;SDS011;41041;43.162;20.538;2023-12-28T05:43:29;76.80;;;23.15;;
55150;SDS011;41041;43.162;20.538;2023-12-28T05:45:55;74.53;;;25.20;;
55150;SDS011;41041;43.162;20.538;2023-12-28T05:48:21;64.30;;;25.80;;
55150;SDS011;41041;43.162;20.538;2023-12-28T05:50:47;70.38;;;23.33;;
55150;SDS011;41041;43.162;20.538;2023-12-28T05:53:14;55.33;;;21.75;;
55150;SDS011;41041;43.162;20.538;2023-12-28T05:55:40;54.75;;;20.75;;
55150;SDS011;41041;43.162;20.538;2023-12-28T05:58:06;80.25;;;22.20;;
55150;SDS011;41041;43.162;20.538;2023-12-28T06:00:32;108.60;;;22.05;;
55150;SDS011;41041;43.162;20.538;2023-12-28T06:02:59;75.50;;;20.38;;
55150;SDS011;41041;43.162;20.538;2023-12-28T06:05:27;82.85;;;18.80;;
55150;SDS011;41041;43.162;20.538;2023-12-28T06:07:53;51.72;;;18.17;;
55150;SDS011;41041;43.162;20.538;2023-12-28T06:10:19;69.22;;;18.80;;
55150;SDS011;41041;43.162;20.538;2023-12-28T06:12:45;63.83;;;18.45;;
55150;SDS011;41041;43.162;20.538;2023-12-28T06:15:11;61.72;;;19.02;;
55150;SDS011;41041;43.162;20.538;2023-12-28T06:17:37;57.63;;;19.60;;
55150;SDS011;41041;43.162;20.538;2023-12-28T06:20:03;66.38;;;25.83;;
55150;SDS011;41041;43.162;20.538;2023-12-28T06:22:30;88.47;;;25.67;;
55150;SDS011;41041;43.162;20.538;2023-12-28T06:24:56;70.47;;;22.58;;
55150;SDS011;41041;43.162;20.538;2023-12-28T06:27:22;71.15;;;23.08;;
55150;SDS011;41041;43.162;20.538;2023-12-28T06:29:51;61.25;;;22.23;;
55150;SDS011;41041;43.162;20.538;2023-12-28T06:32:17;123.28;;;27.23;;
55150;SDS011;41041;43.162;20.538;2023-12-28T06:34:43;97.90;;;24.80;;
55150;SDS011;41041;43.162;20.538;2023-12-28T06:37:09;88.32;;;26.25;;
55150;SDS011;41041;43.162;20.538;2023-12-28T06:39:36;68.78;;;25.92;;
55150;SDS011;41041;43.162;20.538;2023-12-28T06:42:02;80.35;;;25.92;;
55150;SDS011;41041;43.162;20.538;2023-12-28T06:44:28;112.72;;;33.13;;
55150;SDS011;41041;43.162;20.538;2023-12-28T06:46:54;109.30;;;32.25;;
55150;SDS011;41041;43.162;20.538;2023-12-28T06:49:20;78.60;;;30.33;;
55150;SDS011;41041;43.162;20.538;2023-12-28T06:51:46;71.63;;;26.25;;
55150;SDS011;41041;43.162;20.538;2023-12-28T06:56:57;90.60;;;27.50;;
55150;SDS011;41041;43.162;20.538;2023-12-28T06:59:23;117.63;;;28.95;;
55150;SDS011;41041;43.162;20.538;2023-12-28T07:01:49;86.80;;;26.85;;
55150;SDS011;41041;43.162;20.538;2023-12-28T07:04:15;87.20;;;29.17;;
55150;SDS011;41041;43.162;20.538;2023-12-28T07:09:27;90.82;;;31.27;;
55150;SDS011;41041;43.162;20.538;2023-12-28T07:11:53;97.28;;;31.83;;
55150;SDS011;41041;43.162;20.538;2023-12-28T07:14:19;75.63;;;32.58;;
55150;SDS011;41041;43.162;20.538;2023-12-28T07:16:45;92.78;;;32.80;;
55150;SDS011;41041;43.162;20.538;2023-12-28T07:19:11;106.47;;;33.83;;
55150;SDS011;41041;43.162;20.538;2023-12-28T07:21:37;100.40;;;32.65;;
55150;SDS011;41041;43.162;20.538;2023-12-28T07:24:03;96.88;;;33.25;;
55150;SDS011;41041;43.162;20.538;2023-12-28T07:26:46;89.78;;;32.28;;
55150;SDS011;41041;43.162;20.538;2023-12-28T07:29:12;82.97;;;28.70;;
55150;SDS011;41041;43.162;20.538;2023-12-28T07:31:38;81.80;;;30.75;;
55150;SDS011;41041;43.162;20.538;2023-12-28T07:36:49;110.85;;;36.55;;
55150;SDS011;41041;43.162;20.538;2023-12-28T07:39:15;104.60;;;39.13;;
55150;SDS011;41041;43.162;20.538;2023-12-28T07:44:21;152.40;;;44.90;;
55150;SDS011;41041;43.162;20.538;2023-12-28T07:46:47;125.32;;;42.75;;
55150;SDS011;41041;43.162;20.538;2023-12-28T07:49:14;110.53;;;42.88;;
55150;SDS011;41041;43.162;20.538;2023-12-28T07:51:41;127.03;;;48.60;;
55150;SDS011;41041;43.162;20.538;2023-12-28T07:54:07;118.20;;;44.67;;
55150;SDS011;41041;43.162;20.538;2023-12-28T07:59:36;129.27;;;48.42;;
55150;SDS011;41041;43.162;20.538;2023-12-28T08:02:02;130.68;;;47.53;;
55150;SDS011;41041;43.162;20.538;2023-12-28T08:04:29;140.23;;;48.97;;
55150;SDS011;41041;43.162;20.538;2023-12-28T08:09:51;102.22;;;41.30;;
55150;SDS011;41041;43.162;20.538;2023-12-28T08:12:17;107.10;;;42.28;;
55150;SDS011;41041;43.162;20.538;2023-12-28T08:14:44;123.43;;;48.95;;
55150;SDS011;41041;43.162;20.538;2023-12-28T08:17:10;128.15;;;44.05;;
55150;SDS011;41041;43.162;20.538;2023-12-28T08:19:36;143.65;;;51.45;;
55150;SDS011;41041;43.162;20.538;2023-12-28T08:22:03;145.95;;;54.67;;
55150;SDS011;41041;43.162;20.538;2023-12-28T08:24:29;162.05;;;61.95;;
55150;SDS011;41041;43.162;20.538;2023-12-28T08:26:55;152.43;;;59.83;;
55150;SDS011;41041;43.162;20.538;2023-12-28T08:29:25;159.13;;;62.67;;
55150;SDS011;41041;43.162;20.538;2023-12-28T08:31:51;159.48;;;62.33;;
55150;SDS011;41041;43.162;20.538;2023-12-28T08:34:17;162.02;;;62.05;;
55150;SDS011;41041;43.162;20.538;2023-12-28T08:36:43;204.60;;;63.58;;
55150;SDS011;41041;43.162;20.538;2023-12-28T08:39:10;160.93;;;62.40;;
55150;SDS011;41041;43.162;20.538;2023-12-28T08:41:36;162.82;;;65.35;;
55150;SDS011;41041;43.162;20.538;2023-12-28T08:44:02;146.35;;;62.42;;
55150;SDS011;41041;43.162;20.538;2023-12-28T08:46:28;120.45;;;52.72;;
55150;SDS011;41041;43.162;20.538;2023-12-28T08:51:58;124.65;;;55.10;;
55150;SDS011;41041;43.162;20.538;2023-12-28T08:54:24;124.55;;;54.83;;
55150;SDS011;41041;43.162;20.538;2023-12-28T08:56:50;230.80;;;64.35;;
55150;SDS011;41041;43.162;20.538;2023-12-28T08:59:18;136.25;;;56.75;;
55150;SDS011;41041;43.162;20.538;2023-12-28T09:01:44;195.95;;;62.00;;
55150;SDS011;41041;43.162;20.538;2023-12-28T09:04:10;186.25;;;65.07;;
55150;SDS011;41041;43.162;20.538;2023-12-28T09:06:36;168.10;;;55.97;;
55150;SDS011;41041;43.162;20.538;2023-12-28T09:09:02;154.55;;;53.70;;
55150;SDS011;41041;43.162;20.538;2023-12-28T09:11:29;196.23;;;53.92;;
55150;SDS011;41041;43.162;20.538;2023-12-28T09:13:55;369.77;;;72.00;;
55150;SDS011;41041;43.162;20.538;2023-12-28T09:16:21;172.52;;;68.10;;
55150;SDS011;41041;43.162;20.538;2023-12-28T09:18:47;136.20;;;53.45;;
55150;SDS011;41041;43.162;20.538;2023-12-28T09:21:13;166.10;;;53.65;;
55150;SDS011;41041;43.162;20.538;2023-12-28T09:23:39;245.75;;;58.83;;
55150;SDS011;41041;43.162;20.538;2023-12-28T09:26:07;133.80;;;51.47;;
55150;SDS011;41041;43.162;20.538;2023-12-28T09:28:33;188.13;;;67.47;;
55150;SDS011;41041;43.162;20.538;2023-12-28T09:31:02;181.68;;;48.22;;
55150;SDS011;41041;43.162;20.538;2023-12-28T09:33:29;170.75;;;58.72;;
55150;SDS011;41041;43.162;20.538;2023-12-28T09:35:55;267.75;;;57.53;;
55150;SDS011;41041;43.162;20.538;2023-12-28T09:38:21;120.75;;;48.45;;
55150;SDS011;41041;43.162;20.538;2023-12-28T09:40:47;251.38;;;52.63;;
55150;SDS011;41041;43.162;20.538;2023-12-28T09:48:50;187.90;;;46.28;;
55150;SDS011;41041;43.162;20.538;2023-12-28T09:51:18;161.13;;;50.03;;
55150;SDS011;41041;43.162;20.538;2023-12-28T09:53:45;130.48;;;47.90;;
55150;SDS011;41041;43.162;20.538;2023-12-28T09:56:12;148.85;;;49.78;;
55150;SDS011;41041;43.162;20.538;2023-12-28T09:58:41;134.50;;;52.05;;
55150;SDS011;41041;43.162;20.538;2023-12-28T10:01:08;144.05;;;49.88;;
55150;SDS011;41041;43.162;20.538;2023-12-28T10:03:35;159.48;;;50.38;;
55150;SDS011;41041;43.162;20.538;2023-12-28T10:06:01;133.77;;;49.10;;
55150;SDS011;41041;43.162;20.538;2023-12-28T10:08:27;130.70;;;48.65;;
55150;SDS011;41041;43.162;20.538;2023-12-28T10:10:53;140.50;;;50.72;;
55150;SDS011;41041;43.162;20.538;2023-12-28T10:13:22;136.30;;;50.78;;
55150;SDS011;41041;43.162;20.538;2023-12-28T10:15:48;128.05;;;51.75;;
55150;SDS011;41041;43.162;20.538;2023-12-28T10:18:16;139.00;;;49.03;;
55150;SDS011;41041;43.162;20.538;2023-12-28T10:20:47;129.20;;;48.03;;
55150;SDS011;41041;43.162;20.538;2023-12-28T10:23:17;145.75;;;48.58;;
55150;SDS011;41041;43.162;20.538;2023-12-28T10:25:44;213.65;;;52.40;;
55150;SDS011;41041;43.162;20.538;2023-12-28T10:28:11;138.85;;;53.35;;
55150;SDS011;41041;43.162;20.538;2023-12-28T10:30:40;137.65;;;56.80;;
55150;SDS011;41041;43.162;20.538;2023-12-28T10:33:06;139.88;;;54.42;;
55150;SDS011;41041;43.162;20.538;2023-12-28T10:35:32;130.48;;;50.75;;
55150;SDS011;41041;43.162;20.538;2023-12-28T10:38:16;97.82;;;46.00;;
55150;SDS011;41041;43.162;20.538;2023-12-28T10:40:44;95.32;;;42.53;;
55150;SDS011;41041;43.162;20.538;2023-12-28T10:43:11;89.07;;;41.78;;
55150;SDS011;41041;43.162;20.538;2023-12-28T10:45:41;84.70;;;40.97;;
55150;SDS011;41041;43.162;20.538;2023-12-28T10:48:11;88.00;;;41.75;;
55150;SDS011;41041;43.162;20.538;2023-12-28T10:50:39;89.07;;;42.55;;
55150;SDS011;41041;43.162;20.538;2023-12-28T11:04:50;80.35;;;38.20;;
55150;SDS011;41041;43.162;20.538;2023-12-28T11:07:18;75.50;;;34.95;;
55150;SDS011;41041;43.162;20.538;2023-12-28T11:09:47;71.80;;;34.97;;
55150;SDS011;41041;43.162;20.538;2023-12-28T11:15:10;67.63;;;33.08;;
55150;SDS011;41041;43.162;20.538;2023-12-28T11:17:37;52.60;;;30.38;;
55150;SDS011;41041;43.162;20.538;2023-12-28T11:23:07;65.68;;;32.97;;
55150;SDS011;41041;43.162;20.538;2023-12-28T11:25:33;65.05;;;31.23;;
55150;SDS011;41041;43.162;20.538;2023-12-28T11:28:00;71.18;;;37.22;;
55150;SDS011;41041;43.162;20.538;2023-12-28T11:34:39;62.13;;;32.88;;
55150;SDS011;41041;43.162;20.538;2023-12-28T11:37:16;58.78;;;28.85;;
55150;SDS011;41041;43.162;20.538;2023-12-28T11:39:45;53.92;;;27.92;;
55150;SDS011;41041;43.162;20.538;2023-12-28T11:42:18;60.78;;;30.17;;
55150;SDS011;41041;43.162;20.538;2023-12-28T11:44:45;45.20;;;24.83;;
55150;SDS011;41041;43.162;20.538;2023-12-28T11:47:12;59.75;;;29.88;;
55150;SDS011;41041;43.162;20.538;2023-12-28T11:49:41;54.80;;;28.60;;
55150;SDS011;41041;43.162;20.538;2023-12-28T11:52:09;43.17;;;22.38;;
55150;SDS011;41041;43.162;20.538;2023-12-28T11:57:59;37.33;;;20.75;;
55150;SDS011;41041;43.162;20.538;2023-12-28T12:03:47;37.03;;;21.38;;
55150;SDS011;41041;43.162;20.538;2023-12-28T12:06:14;34.95;;;18.90;;
55150;SDS011;41041;43.162;20.538;2023-12-28T12:08:40;33.50;;;18.33;;
55150;SDS011;41041;43.162;20.538;2023-12-28T12:11:06;42.92;;;21.48;;
55150;SDS011;41041;43.162;20.538;2023-12-28T12:13:32;107.43;;;49.67;;
55150;SDS011;41041;43.162;20.538;2023-12-28T12:15:59;61.17;;;31.35;;
55150;SDS011;41041;43.162;20.538;2023-12-28T12:18:30;54.38;;;23.15;;
55150;SDS011;41041;43.162;20.538;2023-12-28T12:20:56;130.07;;;53.22;;
55150;SDS011;41041;43.162;20.538;2023-12-28T12:23:23;66.95;;;35.70;;
55150;SDS011;41041;43.162;20.538;2023-12-28T12:25:49;50.47;;;24.35;;
55150;SDS011;41041;43.162;20.538;2023-12-28T12:28:15;34.17;;;20.58;;
55150;SDS011;41041;43.162;20.538;2023-12-28T12:30:48;43.38;;;25.27;;
55150;SDS011;41041;43.162;20.538;2023-12-28T12:33:16;39.20;;;19.38;;
55150;SDS011;41041;43.162;20.538;2023-12-28T12:35:42;43.22;;;25.83;;
55150;SDS011;41041;43.162;20.538;2023-12-28T12:38:08;35.95;;;20.17;;
55150;SDS011;41041;43.162;20.538;2023-12-28T12:40:34;50.10;;;25.65;;
55150;SDS011;41041;43.162;20.538;2023-12-28T12:46:09;30.75;;;18.10;;
55150;SDS011;41041;43.162;20.538;2023-12-28T13:00:47;37.65;;;20.52;;
55150;SDS011;41041;43.162;20.538;2023-12-28T13:03:13;45.13;;;18.95;;
55150;SDS011;41041;43.162;20.538;2023-12-28T13:05:39;40.75;;;19.20;;
55150;SDS011;41041;43.162;20.538;2023-12-28T13:08:09;39.85;;;18.13;;
55150;SDS011;41041;43.162;20.538;2023-12-28T13:10:35;33.70;;;17.65;;
55150;SDS011;41041;43.162;20.538;2023-12-28T13:13:01;33.45;;;16.70;;
55150;SDS011;41041;43.162;20.538;2023-12-28T13:21:28;34.75;;;18.27;;
55150;SDS011;41041;43.162;20.538;2023-12-28T13:26:30;37.50;;;19.05;;
55150;SDS011;41041;43.162;20.538;2023-12-28T13:28:56;47.78;;;21.73;;
55150;SDS011;41041;43.162;20.538;2023-12-28T13:31:37;35.95;;;17.27;;
55150;SDS011;41041;43.162;20.538;2023-12-28T13:40:30;44.75;;;20.98;;
55150;SDS011;41041;43.162;20.538;2023-12-28T13:42:56;34.67;;;15.20;;
55150;SDS011;41041;43.162;20.538;2023-12-28T13:45:22;37.25;;;18.92;;
55150;SDS011;41041;43.162;20.538;2023-12-28T13:47:49;37.13;;;16.88;;
55150;SDS011;41041;43.162;20.538;2023-12-28T13:50:15;33.78;;;17.00;;
55150;SDS011;41041;43.162;20.538;2023-12-28T13:52:41;33.05;;;16.02;;
55150;SDS011;41041;43.162;20.538;2023-12-28T13:58:11;39.65;;;17.95;;
55150;SDS011;41041;43.162;20.538;2023-12-28T14:00:37;41.33;;;18.02;;
55150;SDS011;41041;43.162;20.538;2023-12-28T14:03:03;39.95;;;19.30;;
55150;SDS011;41041;43.162;20.538;2023-12-28T14:05:37;44.40;;;19.23;;
55150;SDS011;41041;43.162;20.538;2023-12-28T14:11:07;56.20;;;25.77;;
55150;SDS011;41041;43.162;20.538;2023-12-28T14:13:35;63.03;;;30.10;;
55150;SDS011;41041;43.162;20.538;2023-12-28T14:16:02;53.03;;;28.05;;
55150;SDS011;41041;43.162;20.538;2023-12-28T14:18:28;48.25;;;25.98;;
55150;SDS011;41041;43.162;20.538;2023-12-28T14:20:55;52.95;;;24.05;;
55150;SDS011;41041;43.162;20.538;2023-12-28T14:26:24;56.88;;;25.08;;
55150;SDS011;41041;43.162;20.538;2023-12-28T14:28:50;63.58;;;28.13;;
55150;SDS011;41041;43.162;20.538;2023-12-28T14:31:17;62.67;;;28.85;;
55150;SDS011;41041;43.162;20.538;2023-12-28T14:33:43;64.90;;;28.65;;
55150;SDS011;41041;43.162;20.538;2023-12-28T14:36:17;66.13;;;28.85;;
55150;SDS011;41041;43.162;20.538;2023-12-28T14:38:46;87.38;;;38.28;;
55150;SDS011;41041;43.162;20.538;2023-12-28T14:41:12;90.57;;;40.45;;
55150;SDS011;41041;43.162;20.538;2023-12-28T14:43:38;94.68;;;41.13;;
55150;SDS011;41041;43.162;20.538;2023-12-28T14:46:04;121.88;;;46.53;;
55150;SDS011;41041;43.162;20.538;2023-12-28T14:48:30;90.82;;;40.00;;
55150;SDS011;41041;43.162;20.538;2023-12-28T14:50:56;77.57;;;36.47;;
55150;SDS011;41041;43.162;20.538;2023-12-28T14:53:23;86.43;;;46.03;;
55150;SDS011;41041;43.162;20.538;2023-12-28T14:55:51;98.20;;;44.15;;
55150;SDS011;41041;43.162;20.538;2023-12-28T14:58:17;87.57;;;43.45;;
55150;SDS011;41041;43.162;20.538;2023-12-28T15:00:47;74.95;;;37.47;;
55150;SDS011;41041;43.162;20.538;2023-12-28T15:03:13;74.35;;;35.28;;
55150;SDS011;41041;43.162;20.538;2023-12-28T15:05:40;89.30;;;44.22;;
55150;SDS011;41041;43.162;20.538;2023-12-28T15:08:06;90.82;;;44.58;;
55150;SDS011;41041;43.162;20.538;2023-12-28T15:10:32;128.57;;;53.53;;
55150;SDS011;41041;43.162;20.538;2023-12-28T15:12:59;117.60;;;53.08;;
55150;SDS011;41041;43.162;20.538;2023-12-28T15:15:25;447.70;;;151.60;;
55150;SDS011;41041;43.162;20.538;2023-12-28T15:17:51;160.10;;;66.53;;
55150;SDS011;41041;43.162;20.538;2023-12-28T15:20:18;92.22;;;42.20;;
55150;SDS011;41041;43.162;20.538;2023-12-28T15:22:44;86.35;;;37.40;;
55150;SDS011;41041;43.162;20.538;2023-12-28T15:25:10;78.35;;;39.05;;
55150;SDS011;41041;43.162;20.538;2023-12-28T15:27:37;90.15;;;38.40;;
55150;SDS011;41041;43.162;20.538;2023-12-28T15:33:06;70.40;;;34.08;;
55150;SDS011;41041;43.162;20.538;2023-12-28T15:35:32;86.20;;;37.55;;
55150;SDS011;41041;43.162;20.538;2023-12-28T15:38:03;61.73;;;32.17;;
55150;SDS011;41041;43.162;20.538;2023-12-28T15:40:29;77.70;;;37.85;;
55150;SDS011;41041;43.162;20.538;2023-12-28T15:42:55;136.38;;;65.70;;
55150;SDS011;41041;43.162;20.538;2023-12-28T15:45:21;149.30;;;71.00;;
55150;SDS011;41041;43.162;20.538;2023-12-28T15:47:47;135.45;;;71.72;;
55150;SDS011;41041;43.162;20.538;2023-12-28T15:50:13;134.60;;;68.55;;
55150;SDS011;41041;43.162;20.538;2023-12-28T15:52:39;79.15;;;42.88;;